Casper, WY

7:48 PM MDT on September 16, 2014 (GMT -0600)
Natrona County International | Change Station
CLOSE
Current Station
Airport
Location: Casper,
Elevation: 5289 ft
Nearby Weather Stations

Elev 5289 ft 42.90 °N, 106.47 °W | Updated 55 minutes ago

Partly Cloudy
Partly Cloudy
75 °F
Feels Like 75 °F
N
8
Wind Variable Wind from North

Today
High -- | Low -- °F
--% Chance of Precip.
Yesterday
High -- | Low -- °F
Precip. -- in
6:46 AM 7:13 PM
Last Quarter, 40% visible
Pressure 29.91 in
Visibility 10.0 miles
Clouds Clear
Dew Point 33 °F
Humidity 22%
Rainfall 0.00 in
Snow Depth 0 in , 0 in , 1 in
UV 0 out of 12
Pollen 6.40 out of 12
Air Quality Not available.
Flu Activity Not available.
METAR KCPR 170053Z 35007KT 10SM CLR 24/01 A3005 RMK AO2 SLP126 T02390006

More Conditions Fewer Conditions

Pressure 29.91 in
Visibility 10.0 miles
Clouds Clear
Dew Point 33 °F
Humidity 22%
Rainfall 0.00 in
Snow Depth 0 in , 0 in , 1 in
UV 0 out of 12
Pollen 6.40 out of 12
Air Quality Not available.
Flu Activity Not available.
METAR KCPR 170053Z 35007KT 10SM CLR 24/01 A3005 RMK AO2 SLP126 T02390006

More Conditions Fewer Conditions

10-Day Weather Forecast

Almanac

Astronomy

Sep. 16, 2014 Rise Set
Actual Time 6:46 AM MDT 7:13 PM MDT
Civil Twilight 6:17 AM MDT 7:41 PM MDT
Nautical Twilight 5:44 AM MDT 8:14 PM MDT
Astronomical Twilight 5:09 AM MDT 8:49 PM MDT
Moon No Moon Rise 2:45 PM MDT (9/16)
Length of Visible Light 13h 23m
Length of Day
12h 27m
Tomorrow will be 2m 53s shorter.
Last Quarter, 40% of the Moon is Illuminated
Today
Last Quarter
Sep 24
New
Oct 1
First Quarter
Oct 8
Full
Oct 15
Last Quarter

Today's Extremes

State Highs State Lows

Community

WunderPhotos

Upload Photos

1,753,945 photos uploaded!

Nearby

Snow Depth

Station Depth Elevation
Cinnabar Park 0 in 9690 ft
Townsend Creek 0 in 8700 ft
Gunsight Pass 1 in 9820 ft
Blind Bull Summit 1 in 8900 ft
Big Sandy Opening 0 in 9080 ft

Earthquake Activity

City Distance Mag. Time & Date
No recent earthquake activity has been reported nearby.
Minimum magnitude displayed is 2.5.

Coastal Water Temperatures

Place Temperature
No Stations Reporting

Nearby Weather Stations